createdAt,value
2019-03-27T00:00:32.997Z,75.81
2019-03-27T00:01:32.970Z,76.23
2019-03-27T00:02:32.963Z,75.29
2019-03-27T00:03:32.952Z,76.02
2019-03-27T00:04:32.936Z,75.71
2019-03-27T00:05:32.927Z,75.71
2019-03-27T00:06:32.933Z,76.09
2019-03-27T00:07:32.907Z,76.12
2019-03-27T00:08:32.898Z,75.88
2019-03-27T00:09:32.888Z,76.23
2019-03-27T00:10:32.879Z,76.23
2019-03-27T00:11:32.876Z,76.12
2019-03-27T00:12:32.955Z,76.23
2019-03-27T00:13:32.842Z,75.71
2019-03-27T00:14:32.834Z,75.71
2019-03-27T00:15:32.823Z,76.43
2019-03-27T00:16:32.818Z,76.33
2019-03-27T00:17:32.806Z,76.43
2019-03-27T00:18:32.812Z,76.43
2019-03-27T00:19:32.780Z,76.02
2019-03-27T00:20:32.775Z,76.23
2019-03-27T00:21:32.763Z,75.74
2019-03-27T00:22:32.897Z,76.26
2019-03-27T00:23:32.741Z,76.89
2019-03-27T00:24:32.773Z,76.57
2019-03-27T00:25:32.719Z,77.31
2019-03-27T00:26:32.712Z,77.62
2019-03-27T00:27:32.703Z,77.62
2019-03-27T00:28:32.694Z,77.31
2019-03-27T00:29:32.678Z,77.62
2019-03-27T00:30:32.683Z,77.62
2019-03-27T00:31:32.655Z,77.41
2019-03-27T00:32:32.648Z,77.20
2019-03-27T00:33:32.638Z,77.41
2019-03-27T00:34:32.632Z,76.89
2019-03-27T00:35:32.617Z,77.31
2019-03-27T00:36:32.623Z,77.72
2019-03-27T00:37:32.600Z,77.31
2019-03-27T00:38:32.591Z,77.20
2019-03-27T00:39:32.575Z,77.97
2019-03-27T00:40:32.572Z,77.94
2019-03-27T00:41:32.555Z,77.76
2019-03-27T00:42:32.562Z,77.86
2019-03-27T00:43:32.537Z,78.18
2019-03-27T00:44:32.524Z,78.59
2019-03-27T00:45:32.514Z,78.39
2019-03-27T00:46:32.511Z,78.59
2019-03-27T00:47:32.544Z,78.39
2019-03-27T00:48:32.505Z,78.59
2019-03-27T00:49:32.472Z,78.63
2019-03-27T00:50:32.459Z,78.39
2019-03-27T00:51:32.450Z,78.07
2019-03-27T00:52:32.440Z,78.49
2019-03-27T00:53:32.429Z,78.28
2019-03-27T00:54:32.437Z,78.49
2019-03-27T00:55:32.409Z,78.74
2019-03-27T00:56:32.396Z,78.70
2019-03-27T00:57:32.387Z,78.49
2019-03-27T00:58:32.380Z,78.63
2019-03-27T00:59:32.367Z,78.42
2019-03-27T01:00:32.374Z,78.53
2019-03-27T01:01:32.348Z,78.70
2019-03-27T01:02:32.338Z,78.94
2019-03-27T01:03:32.326Z,79.05
2019-03-27T01:04:32.385Z,78.74
2019-03-27T01:05:32.305Z,78.42
2019-03-27T01:06:32.310Z,78.74
2019-03-27T01:07:32.287Z,78.94
2019-03-27T01:08:32.274Z,78.84
2019-03-27T01:09:32.265Z,79.88
2019-03-27T01:10:32.255Z,79.82
2019-03-27T01:11:32.242Z,79.92
2019-03-27T01:12:32.248Z,79.82
2019-03-27T01:13:32.220Z,79.78
2019-03-27T01:14:32.213Z,79.68
2019-03-27T01:15:39.608Z,79.71
2019-03-27T01:16:33.193Z,79.50
2019-03-27T01:17:32.176Z,79.71
2019-03-27T01:18:32.186Z,79.92
2019-03-27T01:19:32.161Z,79.92
2019-03-27T01:20:32.154Z,80.02
2019-03-27T01:21:32.145Z,79.92
2019-03-27T01:22:32.125Z,80.55
2019-03-27T01:23:32.118Z,81.07
2019-03-27T01:24:32.125Z,80.44
2019-03-27T01:25:32.093Z,80.02
2019-03-27T01:26:32.083Z,80.65
2019-03-27T01:27:35.410Z,80.65
2019-03-27T01:28:32.067Z,80.65
2019-03-27T01:29:32.049Z,79.92
2019-03-27T01:30:32.067Z,80.13
2019-03-27T01:31:32.033Z,80.13
2019-03-27T01:32:32.020Z,79.82
2019-03-27T01:33:32.010Z,79.82
2019-03-27T01:34:32.004Z,80.34
2019-03-27T01:35:31.989Z,79.71
2019-03-27T01:36:32.001Z,80.02
2019-03-27T01:37:31.974Z,80.02
2019-03-27T01:38:31.959Z,79.92
2019-03-27T01:39:31.950Z,79.92
2019-03-27T01:40:31.940Z,79.85
2019-03-27T01:41:31.928Z,79.85
2019-03-27T01:42:31.952Z,80.13
2019-03-27T01:43:31.908Z,79.92
2019-03-27T01:44:31.898Z,80.27
2019-03-27T01:45:31.886Z,80.58
2019-03-27T01:46:31.876Z,80.69
2019-03-27T01:47:31.866Z,80.38
2019-03-27T01:48:31.869Z,80.48
2019-03-27T01:49:31.843Z,80.48
2019-03-27T01:50:31.835Z,81.00
2019-03-27T01:51:31.823Z,81.11
2019-03-27T01:52:31.818Z,81.11
2019-03-27T01:53:31.801Z,81.42
2019-03-27T01:54:31.834Z,80.90
2019-03-27T01:55:31.785Z,81.11
2019-03-27T01:56:31.772Z,81.21
2019-03-27T01:57:31.756Z,81.00
2019-03-27T01:58:31.750Z,81.52
2019-03-27T01:59:31.737Z,81.11
2019-03-27T02:00:31.775Z,81.63
2019-03-27T02:01:31.717Z,81.63
2019-03-27T02:02:31.705Z,81.32
2019-03-27T02:03:31.702Z,81.98
2019-03-27T02:04:31.686Z,81.84
2019-03-27T02:05:31.680Z,81.98
2019-03-27T02:06:31.688Z,81.87
2019-03-27T02:07:31.657Z,82.19
2019-03-27T02:08:31.646Z,81.77
2019-03-27T02:09:31.634Z,82.09
2019-03-27T02:10:31.625Z,81.98
2019-03-27T02:11:31.610Z,81.98
2019-03-27T02:12:31.629Z,81.84
2019-03-27T02:13:31.616Z,81.84
2019-03-27T02:14:31.582Z,81.63
2019-03-27T02:15:31.571Z,81.42
2019-03-27T02:16:31.566Z,81.35
2019-03-27T02:17:31.549Z,81.63
2019-03-27T02:18:31.574Z,81.32
2019-03-27T02:19:31.537Z,81.32
2019-03-27T02:20:31.517Z,81.00
2019-03-27T02:21:31.511Z,81.63
2019-03-27T02:22:31.501Z,81.84
2019-03-27T02:23:31.492Z,81.52
2019-03-27T02:24:31.498Z,81.32
2019-03-27T02:25:31.470Z,81.56
2019-03-27T02:26:31.457Z,81.95
2019-03-27T02:27:31.450Z,81.77
2019-03-27T02:28:31.440Z,81.21
2019-03-27T02:29:31.428Z,81.87
2019-03-27T02:30:31.442Z,81.98
2019-03-27T02:31:31.416Z,81.98
2019-03-27T02:32:31.401Z,81.98
2019-03-27T02:33:31.386Z,82.26
2019-03-27T02:34:31.378Z,81.87
2019-03-27T02:35:31.364Z,81.98
2019-03-27T02:36:31.377Z,82.29
2019-03-27T02:37:31.354Z,82.19
2019-03-27T02:38:31.338Z,81.67
2019-03-27T02:39:31.324Z,82.29
2019-03-27T02:40:31.311Z,81.98
2019-03-27T02:41:31.301Z,82.50
2019-03-27T02:42:31.314Z,82.19
2019-03-27T02:43:31.290Z,82.60
2019-03-27T02:44:31.271Z,82.82
2019-03-27T02:45:31.268Z,82.71
2019-03-27T02:46:31.252Z,82.50
2019-03-27T02:47:31.247Z,82.71
2019-03-27T02:48:31.258Z,82.75
2019-03-27T02:49:31.222Z,82.96
2019-03-27T02:50:31.216Z,82.86
2019-03-27T02:51:31.199Z,83.17
2019-03-27T02:52:31.192Z,83.27
2019-03-27T02:53:31.183Z,82.96
2019-03-27T02:54:31.211Z,82.96
2019-03-27T02:55:31.163Z,83.17
2019-03-27T02:56:31.152Z,83.17
2019-03-27T02:57:31.142Z,83.06
2019-03-27T02:58:31.133Z,83.42
2019-03-27T02:59:31.114Z,83.52
2019-03-27T03:00:31.139Z,83.73
2019-03-27T03:01:31.106Z,84.08
2019-03-27T03:02:31.085Z,84.29
2019-03-27T03:03:31.104Z,84.08
2019-03-27T03:04:31.070Z,84.05
2019-03-27T03:05:31.058Z,84.08
2019-03-27T03:06:31.061Z,84.36
2019-03-27T03:07:31.035Z,84.05
2019-03-27T03:08:31.030Z,84.05
2019-03-27T03:09:31.014Z,83.98
2019-03-27T03:10:31.006Z,84.08
2019-03-27T03:11:30.998Z,84.08
2019-03-27T03:12:31.482Z,84.29
2019-03-27T03:13:30.978Z,84.71
2019-03-27T03:14:30.973Z,84.71
2019-03-27T03:15:30.957Z,84.71
2019-03-27T03:16:42.152Z,84.50
2019-03-27T03:17:31.945Z,84.50
2019-03-27T03:18:30.933Z,84.61
2019-03-27T03:19:30.915Z,84.39
2019-03-27T03:20:30.900Z,84.81
2019-03-27T03:21:30.893Z,84.92
2019-03-27T03:22:30.884Z,85.02
2019-03-27T03:23:30.889Z,84.92
2019-03-27T03:24:30.869Z,85.02
2019-03-27T03:25:30.848Z,84.92
2019-03-27T03:26:30.848Z,85.59
2019-03-27T03:27:30.834Z,85.80
2019-03-27T03:28:30.823Z,85.69
2019-03-27T03:29:30.843Z,85.80
2019-03-27T03:30:30.796Z,85.27
2019-03-27T03:31:30.789Z,85.34
2019-03-27T03:32:30.777Z,85.65
2019-03-27T03:33:30.767Z,86.32
2019-03-27T03:34:30.754Z,86.85
2019-03-27T03:35:30.765Z,86.63
2019-03-27T03:36:30.735Z,86.53
2019-03-27T03:37:30.732Z,86.49
2019-03-27T03:38:30.718Z,86.00
2019-03-27T03:39:30.708Z,85.97
2019-03-27T03:40:30.695Z,85.86
2019-03-27T03:41:30.703Z,85.97
2019-03-27T03:42:30.674Z,86.11
2019-03-27T03:43:30.668Z,86.22
2019-03-27T03:44:30.665Z,86.74
2019-03-27T03:45:30.645Z,86.85
2019-03-27T03:46:30.636Z,86.85
2019-03-27T03:47:30.641Z,86.74
2019-03-27T03:48:30.618Z,86.63
2019-03-27T03:49:30.605Z,86.85
2019-03-27T03:50:30.592Z,86.63
2019-03-27T03:51:30.581Z,86.00
2019-03-27T03:52:30.573Z,87.05
2019-03-27T03:53:30.578Z,87.16
2019-03-27T03:54:30.549Z,86.95
2019-03-27T03:55:30.541Z,87.16
2019-03-27T03:56:30.531Z,86.38
2019-03-27T03:57:30.522Z,86.74
2019-03-27T03:58:30.517Z,86.74
2019-03-27T03:59:30.520Z,86.11
2019-03-27T04:00:30.490Z,85.55
2019-03-27T04:01:30.479Z,85.55
2019-03-27T04:02:30.463Z,85.69
2019-03-27T04:03:30.454Z,86.00
2019-03-27T04:04:30.452Z,86.18
2019-03-27T04:05:30.475Z,86.43
2019-03-27T04:06:30.426Z,86.80
2019-03-27T04:07:30.417Z,86.32
2019-03-27T04:08:30.408Z,86.32
2019-03-27T04:09:30.404Z,86.00
2019-03-27T04:10:30.390Z,87.26
2019-03-27T04:11:30.398Z,86.74
2019-03-27T04:12:30.361Z,86.63
2019-03-27T04:13:30.361Z,87.05
2019-03-27T04:14:30.349Z,87.05
2019-03-27T04:15:30.337Z,87.05
2019-03-27T04:16:30.328Z,86.85
2019-03-27T04:17:30.333Z,86.85
2019-03-27T04:18:30.305Z,86.95
2019-03-27T04:19:30.295Z,86.74
2019-03-27T04:20:30.301Z,86.95
2019-03-27T04:21:30.278Z,87.05
2019-03-27T04:22:30.263Z,87.37
2019-03-27T04:23:30.265Z,87.16
2019-03-27T04:24:30.251Z,86.95
2019-03-27T04:25:53.621Z,86.85
2019-03-27T04:26:33.486Z,86.43
2019-03-27T04:27:30.211Z,86.22
2019-03-27T04:28:30.204Z,86.74
2019-03-27T04:29:30.209Z,87.26
2019-03-27T04:30:30.180Z,87.05
2019-03-27T04:31:30.172Z,86.95
2019-03-27T04:32:30.161Z,86.99
2019-03-27T04:33:30.155Z,87.37
2019-03-27T04:34:30.134Z,87.47
2019-03-27T04:35:30.164Z,87.83
2019-03-27T04:36:30.118Z,87.62
2019-03-27T04:37:30.111Z,87.41
2019-03-27T04:38:30.100Z,87.62
2019-03-27T04:39:30.090Z,87.37
2019-03-27T04:40:30.073Z,87.47
2019-03-27T04:41:30.086Z,87.30
2019-03-27T04:42:30.061Z,87.47
2019-03-27T04:43:30.051Z,87.26
2019-03-27T04:44:30.037Z,87.26
2019-03-27T04:45:30.024Z,87.26
2019-03-27T04:46:30.013Z,87.26
2019-03-27T04:47:32.370Z,87.37
2019-03-27T04:48:38.049Z,87.16
2019-03-27T04:49:29.980Z,87.09
2019-03-27T04:50:29.973Z,87.20
2019-03-27T04:51:29.961Z,87.83
2019-03-27T04:52:29.952Z,88.04
2019-03-27T04:53:29.966Z,88.56
2019-03-27T04:54:29.947Z,88.56
2019-03-27T04:55:29.921Z,88.14
2019-03-27T04:56:29.909Z,87.72
2019-03-27T04:57:29.900Z,88.35
2019-03-27T04:58:29.901Z,88.14
2019-03-27T04:59:29.900Z,88.04
2019-03-27T05:00:29.869Z,88.46
2019-03-27T05:01:29.856Z,88.87
2019-03-27T05:02:29.846Z,88.84
2019-03-27T05:03:29.840Z,88.14
2019-03-27T05:04:29.833Z,88.14
2019-03-27T05:05:29.840Z,88.42
2019-03-27T05:06:29.816Z,88.35
2019-03-27T05:07:29.793Z,87.93
2019-03-27T05:08:29.785Z,88.04
2019-03-27T05:09:29.777Z,88.24
2019-03-27T05:10:29.778Z,88.87
2019-03-27T05:11:29.799Z,88.46
2019-03-27T05:12:29.742Z,88.77
2019-03-27T05:13:29.734Z,88.92
2019-03-27T05:14:29.719Z,88.46
2019-03-27T05:15:29.707Z,88.14
2019-03-27T05:16:29.709Z,88.24
2019-03-27T05:17:29.710Z,88.14
2019-03-27T05:18:29.678Z,87.83
2019-03-27T05:19:29.668Z,88.35
2019-03-27T05:20:29.655Z,88.46
2019-03-27T05:21:29.645Z,87.89
2019-03-27T05:22:29.685Z,87.30
2019-03-27T05:23:29.639Z,87.47
2019-03-27T05:24:29.614Z,87.47
2019-03-27T05:25:29.611Z,87.37
2019-03-27T05:26:29.595Z,87.41
2019-03-27T05:27:29.588Z,87.37
2019-03-27T05:28:29.581Z,87.72
2019-03-27T05:29:29.965Z,87.09
2019-03-27T05:30:29.563Z,87.26
2019-03-27T05:31:29.544Z,86.74
2019-03-27T05:32:29.545Z,87.05
2019-03-27T05:33:32.531Z,87.16
2019-03-27T05:34:29.518Z,86.53
2019-03-27T05:35:29.525Z,87.05
2019-03-27T05:36:29.493Z,87.16
2019-03-27T05:37:29.493Z,86.07
2019-03-27T05:38:29.471Z,86.28
2019-03-27T05:39:29.467Z,86.22
2019-03-27T05:40:29.461Z,86.85
2019-03-27T05:41:29.454Z,86.00
2019-03-27T05:42:29.431Z,86.22
2019-03-27T05:43:29.418Z,85.75
2019-03-27T05:44:29.408Z,85.55
2019-03-27T05:45:29.396Z,85.55
2019-03-27T05:46:29.389Z,85.55
2019-03-27T05:47:29.409Z,85.34
2019-03-27T05:48:29.367Z,84.88
2019-03-27T05:49:29.364Z,85.24
2019-03-27T05:50:29.349Z,85.41
2019-03-27T05:51:29.341Z,84.74
2019-03-27T05:52:29.346Z,83.94
2019-03-27T05:53:29.344Z,83.94
2019-03-27T05:54:29.315Z,84.05
2019-03-27T05:55:29.297Z,84.42
2019-03-27T05:56:29.284Z,84.11
2019-03-27T05:57:29.273Z,83.90
2019-03-27T05:58:29.278Z,83.76
2019-03-27T05:59:29.274Z,83.51
2019-03-27T06:00:29.328Z,82.12
2019-03-27T06:01:29.232Z,79.74
2019-03-27T06:02:29.224Z,77.80
2019-03-27T06:03:29.211Z,76.26
2019-03-27T06:04:29.211Z,75.60
2019-03-27T06:05:29.211Z,73.90
2019-03-27T06:06:29.189Z,72.20
2019-03-27T06:07:29.171Z,70.20
2019-03-27T06:08:29.160Z,71.03
2019-03-27T06:09:29.160Z,71.13
2019-03-27T06:10:29.138Z,70.92
2019-03-27T06:11:29.144Z,70.68
2019-03-27T06:12:29.118Z,70.48
2019-03-27T06:13:29.122Z,70.75
2019-03-27T06:14:29.114Z,68.96
2019-03-27T06:15:29.086Z,68.13
2019-03-27T06:16:29.082Z,68.41
2019-03-27T06:17:29.105Z,67.68
2019-03-27T06:18:29.061Z,67.27
2019-03-27T06:19:29.044Z,67.09
2019-03-27T06:20:29.035Z,68.27
2019-03-27T06:21:29.030Z,66.72
2019-03-27T06:22:29.031Z,66.20
2019-03-27T06:23:29.028Z,65.58
2019-03-27T06:24:28.993Z,65.68
2019-03-27T06:25:28.995Z,65.60
2019-03-27T06:26:28.986Z,66.67
2019-03-27T06:27:28.966Z,67.24
2019-03-27T06:28:28.951Z,66.14
2019-03-27T06:29:28.965Z,64.30
2019-03-27T06:30:28.930Z,65.10
2019-03-27T06:31:28.923Z,64.58
2019-03-27T06:32:28.913Z,65.90
2019-03-27T06:33:28.964Z,65.56
2019-03-27T06:34:28.908Z,62.87
2019-03-27T06:35:28.903Z,63.07
2019-03-27T06:36:28.867Z,63.15
2019-03-27T06:37:28.856Z,63.43
2019-03-27T06:38:28.857Z,61.79
2019-03-27T06:39:28.841Z,59.13
2019-03-27T06:40:28.822Z,61.07
2019-03-27T06:41:28.836Z,58.97
2019-03-27T06:42:28.806Z,58.66
2019-03-27T06:43:28.791Z,58.66
2019-03-27T06:44:28.782Z,59.03
2019-03-27T06:45:28.768Z,59.95
2019-03-27T06:46:28.768Z,60.42
2019-03-27T06:47:28.790Z,61.28
2019-03-27T06:48:28.748Z,62.14
2019-03-27T06:49:28.729Z,62.42
2019-03-27T06:50:28.717Z,60.99
2019-03-27T06:51:39.439Z,58.66
2019-03-27T06:52:29.715Z,57.14
2019-03-27T06:53:28.684Z,59.62
2019-03-27T06:54:28.675Z,59.98
2019-03-27T06:55:28.662Z,58.50
2019-03-27T06:56:28.652Z,56.96
2019-03-27T06:57:28.649Z,58.06
2019-03-27T06:58:28.652Z,56.80
2019-03-27T06:59:28.620Z,56.70
2019-03-27T07:00:28.613Z,55.80
2019-03-27T07:01:28.598Z,55.95
2019-03-27T07:02:29.034Z,55.07
2019-03-27T07:03:28.578Z,54.48
2019-03-27T07:04:28.624Z,55.36
2019-03-27T07:05:28.578Z,54.84
2019-03-27T07:06:28.543Z,56.36
2019-03-27T07:07:28.550Z,54.77
2019-03-27T07:08:28.524Z,55.13
2019-03-27T07:09:28.565Z,52.12
2019-03-27T07:10:28.534Z,51.66
2019-03-27T07:11:28.528Z,51.58
2019-03-27T07:12:28.486Z,52.59
2019-03-27T07:13:28.474Z,51.76
2019-03-27T07:14:28.493Z,51.61
2019-03-27T07:15:28.463Z,52.27
2019-03-27T07:16:28.514Z,53.76
2019-03-27T07:17:28.425Z,55.54
2019-03-27T07:18:39.616Z,56.72
2019-03-27T07:19:29.405Z,53.53
2019-03-27T07:20:28.399Z,53.58
2019-03-27T07:21:28.433Z,52.43
2019-03-27T07:22:28.406Z,54.46
2019-03-27T07:23:28.380Z,54.66
2019-03-27T07:24:28.357Z,53.20
2019-03-27T07:25:28.361Z,52.14
2019-03-27T07:26:28.359Z,53.17
2019-03-27T07:27:28.344Z,54.53
2019-03-27T07:28:28.658Z,52.30
2019-03-27T07:29:28.297Z,52.07
2019-03-27T07:30:28.325Z,51.56
2019-03-27T07:31:28.306Z,51.64
2019-03-27T07:32:28.275Z,52.04
2019-03-27T07:33:28.264Z,53.15
2019-03-27T07:34:28.266Z,53.74
2019-03-27T07:35:28.245Z,54.10
2019-03-27T07:36:28.245Z,52.53
2019-03-27T07:37:28.212Z,53.53
2019-03-27T07:38:28.215Z,52.45
2019-03-27T07:39:28.193Z,53.45
2019-03-27T07:40:28.224Z,54.10
2019-03-27T07:41:28.227Z,54.87
2019-03-27T07:42:29.000Z,54.25
2019-03-27T07:43:28.198Z,54.72
2019-03-27T07:44:28.154Z,54.66
2019-03-27T07:45:28.153Z,51.10
2019-03-27T07:46:28.135Z,50.22
2019-03-27T07:47:28.102Z,51.04
2019-03-27T07:48:28.114Z,53.36
2019-03-27T07:49:28.083Z,51.39
2019-03-27T07:50:28.078Z,48.64
2019-03-27T07:51:28.074Z,47.20
2019-03-27T07:52:28.067Z,47.58
2019-03-27T07:53:28.179Z,48.74
2019-03-27T07:54:28.051Z,52.20
2019-03-27T07:55:28.030Z,50.79
2019-03-27T07:56:28.035Z,51.39
2019-03-27T07:57:27.995Z,50.93
2019-03-27T07:58:28.345Z,49.42
2019-03-27T07:59:27.979Z,49.08
2019-03-27T08:00:27.984Z,50.90
2019-03-27T08:01:27.957Z,51.68
2019-03-27T08:02:27.969Z,52.02
2019-03-27T08:03:27.931Z,50.72
2019-03-27T08:04:28.042Z,50.34
2019-03-27T08:05:27.920Z,47.89
2019-03-27T08:06:27.901Z,47.71
2019-03-27T08:07:27.905Z,48.98
2019-03-27T08:08:27.876Z,49.69
2019-03-27T08:09:27.903Z,48.84
2019-03-27T08:10:27.875Z,44.34
2019-03-27T08:11:27.996Z,43.57
2019-03-27T08:12:27.854Z,43.20
2019-03-27T08:13:27.852Z,45.08
2019-03-27T08:14:27.807Z,47.61
2019-03-27T08:15:27.809Z,46.31
2019-03-27T08:16:27.820Z,46.19
2019-03-27T08:17:27.793Z,46.44
2019-03-27T08:18:27.780Z,48.27
2019-03-27T08:19:27.764Z,47.12
2019-03-27T08:20:27.764Z,43.57
2019-03-27T08:21:31.064Z,43.77
2019-03-27T08:22:27.745Z,43.43
2019-03-27T08:23:27.719Z,42.94
2019-03-27T08:24:27.703Z,39.45
2019-03-27T08:25:27.718Z,40.23
2019-03-27T08:26:27.681Z,42.37
2019-03-27T08:27:27.677Z,44.14
2019-03-27T08:28:27.766Z,43.04
2019-03-27T08:29:27.691Z,39.89
2019-03-27T08:30:27.652Z,39.79
2019-03-27T08:31:27.641Z,39.53
2019-03-27T08:32:27.625Z,38.86
2019-03-27T08:33:27.617Z,42.05
2019-03-27T08:34:27.610Z,40.66
2019-03-27T08:35:27.589Z,43.43
2019-03-27T08:36:27.580Z,44.49
2019-03-27T08:37:27.565Z,44.46
2019-03-27T08:38:27.550Z,45.61
2019-03-27T08:39:27.541Z,44.96
2019-03-27T08:40:27.544Z,44.67
2019-03-27T08:41:27.515Z,46.00
2019-03-27T08:42:27.556Z,46.08
2019-03-27T08:43:27.496Z,44.46
2019-03-27T08:44:27.502Z,46.43
2019-03-27T08:45:27.476Z,44.73
2019-03-27T08:46:27.482Z,45.34
2019-03-27T08:47:27.490Z,45.43
2019-03-27T08:48:27.471Z,47.29
2019-03-27T08:49:27.432Z,46.98
2019-03-27T08:50:27.432Z,49.90
2019-03-27T08:51:27.440Z,50.70
2019-03-27T08:52:27.486Z,49.90
2019-03-27T08:53:27.394Z,50.21
2019-03-27T08:54:27.408Z,51.34
2019-03-27T08:55:27.375Z,50.97
2019-03-27T08:56:27.359Z,53.89
2019-03-27T08:57:27.343Z,54.53
2019-03-27T08:58:27.370Z,54.28
2019-03-27T08:59:27.350Z,51.59
2019-03-27T09:00:27.327Z,52.39
2019-03-27T09:01:27.331Z,52.05
2019-03-27T09:02:27.306Z,49.88
2019-03-27T09:03:27.298Z,52.64
2019-03-27T09:04:27.301Z,53.69
2019-03-27T09:05:27.288Z,54.33
2019-03-27T09:06:33.504Z,54.56
2019-03-27T09:07:28.296Z,55.90
2019-03-27T09:08:27.229Z,55.59
2019-03-27T09:09:27.246Z,55.49
2019-03-27T09:10:27.327Z,55.62
2019-03-27T09:11:27.197Z,56.41
2019-03-27T09:12:27.183Z,56.46
2019-03-27T09:13:27.175Z,54.69
2019-03-27T09:14:27.185Z,52.82
2019-03-27T09:15:27.171Z,53.82
2019-03-27T09:16:27.236Z,52.00
2019-03-27T09:17:27.186Z,53.15
2019-03-27T09:18:27.155Z,51.34
2019-03-27T09:19:35.461Z,54.08
2019-03-27T09:20:28.105Z,53.85
2019-03-27T09:21:27.090Z,53.44
2019-03-27T09:22:27.116Z,53.85
2019-03-27T09:23:27.075Z,53.46
2019-03-27T09:24:27.055Z,53.39
2019-03-27T09:25:27.047Z,49.02
2019-03-27T09:26:27.039Z,47.53
2019-03-27T09:27:27.026Z,46.61
2019-03-27T09:28:27.039Z,47.19
2019-03-27T09:29:27.082Z,47.22
2019-03-27T09:30:27.007Z,48.79
2019-03-27T09:31:26.994Z,50.55
2019-03-27T09:32:26.968Z,50.14
2019-03-27T09:33:26.958Z,50.34
2019-03-27T09:34:26.984Z,50.52
2019-03-27T09:35:26.939Z,51.23
2019-03-27T09:36:26.933Z,51.98
2019-03-27T09:37:26.939Z,53.23
2019-03-27T09:38:26.923Z,53.56
2019-03-27T09:39:26.894Z,51.95
2019-03-27T09:40:26.895Z,53.74
2019-03-27T09:41:26.876Z,53.23
2019-03-27T09:42:26.865Z,53.05
2019-03-27T09:43:26.867Z,54.00
2019-03-27T09:44:26.840Z,53.44
2019-03-27T09:45:26.842Z,52.28
2019-03-27T09:46:26.878Z,52.20
2019-03-27T09:47:26.842Z,52.34
2019-03-27T09:48:26.798Z,48.66
2019-03-27T09:49:26.790Z,48.27
2019-03-27T09:50:26.833Z,47.86
2019-03-27T09:51:26.793Z,45.24
2019-03-27T09:52:26.777Z,43.65
2019-03-27T09:53:26.751Z,43.10
2019-03-27T09:54:26.732Z,42.14
2019-03-27T09:55:26.723Z,40.14
2019-03-27T09:56:26.714Z,41.58
2019-03-27T09:57:26.714Z,43.10
2019-03-27T09:58:26.710Z,44.04
2019-03-27T09:59:26.682Z,44.65
2019-03-27T10:00:26.668Z,43.85
2019-03-27T10:01:26.664Z,45.02
2019-03-27T10:02:26.668Z,44.02
2019-03-27T10:03:26.641Z,43.96
2019-03-27T10:04:26.654Z,42.69
2019-03-27T10:05:26.619Z,41.47
2019-03-27T10:06:26.654Z,40.97
2019-03-27T10:07:26.625Z,40.59
2019-03-27T10:08:26.601Z,40.08
2019-03-27T10:09:26.584Z,40.18
2019-03-27T10:10:26.604Z,40.08
2019-03-27T10:11:26.549Z,37.85
2019-03-27T10:12:26.539Z,39.95
2019-03-27T10:13:26.526Z,43.85
2019-03-27T10:14:26.533Z,44.96
2019-03-27T10:15:26.521Z,43.81
2019-03-27T10:16:26.528Z,43.67
2019-03-27T10:17:26.486Z,46.96
2019-03-27T10:18:26.478Z,46.90
2019-03-27T10:19:26.466Z,46.78
2019-03-27T10:20:26.456Z,47.41
2019-03-27T10:21:26.463Z,48.89
2019-03-27T10:22:26.491Z,46.00
2019-03-27T10:23:26.420Z,45.94
2019-03-27T10:24:26.423Z,47.20
2019-03-27T10:25:26.427Z,47.97
2019-03-27T10:26:26.410Z,49.47
2019-03-27T10:27:26.395Z,50.31
2019-03-27T10:28:26.437Z,51.34
2019-03-27T10:29:26.356Z,51.36
2019-03-27T10:30:26.347Z,51.28
2019-03-27T10:31:26.368Z,51.48
2019-03-27T10:32:26.346Z,51.54
2019-03-27T10:33:26.337Z,51.34
2019-03-27T10:34:26.351Z,51.85
2019-03-27T10:35:26.308Z,51.21
2019-03-27T10:36:26.284Z,49.98
2019-03-27T10:37:26.270Z,50.90
2019-03-27T10:38:26.292Z,51.23
2019-03-27T10:39:26.260Z,50.59
2019-03-27T10:40:26.302Z,49.85
2019-03-27T10:41:26.228Z,50.06
2019-03-27T10:42:26.230Z,49.98
2019-03-27T10:43:26.205Z,51.44
2019-03-27T10:44:26.224Z,50.09
2019-03-27T10:45:26.192Z,50.47
2019-03-27T10:46:26.211Z,49.63
2019-03-27T10:47:26.173Z,49.99
2019-03-27T10:48:26.152Z,48.56
2019-03-27T10:49:34.537Z,48.46
2019-03-27T10:50:26.131Z,45.79
2019-03-27T10:51:26.121Z,44.08
2019-03-27T10:52:26.122Z,43.32
2019-03-27T10:53:26.099Z,45.06
2019-03-27T10:54:26.090Z,45.88
2019-03-27T10:55:26.098Z,47.85
2019-03-27T10:56:26.074Z,48.02
2019-03-27T10:57:26.058Z,47.19
2019-03-27T10:58:26.086Z,47.14
2019-03-27T10:59:26.041Z,44.75
2019-03-27T11:00:26.022Z,43.20
2019-03-27T11:01:26.021Z,43.35
2019-03-27T11:02:26.000Z,42.19
2019-03-27T11:03:25.991Z,41.52
2019-03-27T11:04:25.999Z,43.51
2019-03-27T11:05:25.973Z,46.08
2019-03-27T11:06:25.958Z,45.94
2019-03-27T11:07:25.948Z,45.10
2019-03-27T11:08:25.939Z,45.00
2019-03-27T11:09:25.979Z,44.00
2019-03-27T11:10:25.936Z,44.67
2019-03-27T11:11:25.904Z,43.38
2019-03-27T11:12:25.896Z,42.90
2019-03-27T11:13:25.885Z,44.06
2019-03-27T11:14:37.138Z,42.92
2019-03-27T11:15:26.881Z,43.24
2019-03-27T11:16:25.852Z,43.29
2019-03-27T11:17:25.843Z,40.83
2019-03-27T11:18:25.831Z,37.71
2019-03-27T11:19:25.825Z,38.64
2019-03-27T11:20:31.383Z,41.37
2019-03-27T11:21:26.811Z,41.39
2019-03-27T11:22:25.796Z,40.80
2019-03-27T11:23:25.778Z,40.46
2019-03-27T11:24:25.768Z,38.88
2019-03-27T11:25:25.755Z,36.94
2019-03-27T11:26:25.742Z,36.76
2019-03-27T11:27:25.742Z,37.51
2019-03-27T11:28:25.725Z,37.62
2019-03-27T11:29:25.711Z,35.73
2019-03-27T11:30:25.700Z,37.00
2019-03-27T11:31:25.696Z,37.90
2019-03-27T11:32:25.679Z,38.57
2019-03-27T11:33:28.778Z,39.46
2019-03-27T11:34:25.656Z,41.41
2019-03-27T11:35:25.649Z,43.26
2019-03-27T11:36:25.641Z,45.59
2019-03-27T11:37:25.627Z,46.00
2019-03-27T11:38:25.623Z,45.80
2019-03-27T11:39:25.621Z,43.75
2019-03-27T11:40:25.592Z,42.33
2019-03-27T11:41:25.583Z,39.93
2019-03-27T11:42:25.576Z,39.95
2019-03-27T11:43:25.563Z,39.54
2019-03-27T11:44:25.555Z,39.93
2019-03-27T11:45:25.557Z,40.05
2019-03-27T11:46:25.528Z,39.69
2019-03-27T11:47:25.519Z,40.97
2019-03-27T11:48:25.511Z,39.62
2019-03-27T11:49:25.497Z,39.49
2019-03-27T11:50:25.485Z,39.02
2019-03-27T11:51:25.487Z,38.57
2019-03-27T11:52:25.464Z,38.92
2019-03-27T11:53:25.451Z,38.95
2019-03-27T11:54:25.448Z,39.54
2019-03-27T11:55:25.432Z,41.43
2019-03-27T11:56:25.438Z,41.89
2019-03-27T11:57:25.423Z,44.12
2019-03-27T11:58:25.401Z,42.12
2019-03-27T11:59:25.387Z,41.45
2019-03-27T12:00:25.378Z,40.94
2019-03-27T12:01:38.728Z,41.63
2019-03-27T12:02:26.375Z,43.69
2019-03-27T12:03:25.346Z,43.29
2019-03-27T12:04:25.333Z,43.57
2019-03-27T12:05:25.323Z,40.46
2019-03-27T12:06:25.314Z,38.17
2019-03-27T12:07:25.301Z,38.34
2019-03-27T12:08:25.304Z,41.55
2019-03-27T12:09:25.285Z,42.47
2019-03-27T12:10:25.273Z,41.86
2019-03-27T12:11:25.261Z,42.69
2019-03-27T12:12:25.315Z,40.43
2019-03-27T12:13:25.241Z,39.59
2019-03-27T12:14:25.246Z,39.93
2019-03-27T12:15:25.222Z,40.33
2019-03-27T12:16:25.205Z,42.30
2019-03-27T12:17:25.199Z,43.23
2019-03-27T12:18:25.183Z,43.30
2019-03-27T12:19:25.175Z,41.72
2019-03-27T12:20:25.177Z,42.10
2019-03-27T12:21:25.151Z,42.14
2019-03-27T12:22:25.142Z,42.30
2019-03-27T12:23:25.132Z,41.57
2019-03-27T12:24:25.120Z,40.30
2019-03-27T12:25:25.112Z,39.58
2019-03-27T12:26:25.122Z,41.55
2019-03-27T12:27:25.087Z,43.61
2019-03-27T12:28:25.077Z,43.88
2019-03-27T12:29:25.068Z,41.00
2019-03-27T12:30:25.058Z,38.95
2019-03-27T12:31:25.053Z,39.02
2019-03-27T12:32:25.247Z,37.39
2019-03-27T12:33:25.038Z,37.29
2019-03-27T12:34:25.015Z,38.87
2019-03-27T12:35:25.002Z,41.08
2019-03-27T12:36:24.989Z,41.37
2019-03-27T12:37:24.985Z,40.92
2019-03-27T12:38:24.989Z,41.80
2019-03-27T12:39:24.956Z,39.46
2019-03-27T12:40:24.952Z,39.80
2019-03-27T12:41:24.939Z,41.35
2019-03-27T12:42:24.925Z,41.37
2019-03-27T12:43:24.919Z,41.02
2019-03-27T12:44:24.922Z,38.32
2019-03-27T12:45:24.893Z,37.07
2019-03-27T12:46:24.883Z,38.20
2019-03-27T12:47:24.871Z,37.71
2019-03-27T12:48:24.861Z,38.56
2019-03-27T12:49:24.851Z,40.14
2019-03-27T12:50:24.874Z,40.90
2019-03-27T12:51:24.827Z,42.14
2019-03-27T12:52:24.817Z,42.04